sensor_id;sensor_type;location;lat;lon;timestamp;pressure;altitude;pressure_sealevel;temperature;humidity
57668;BME280;43499;52.366;12.912;2022-12-22T00:00:21;100507.84;;;5.72;100.00
57668;BME280;43499;52.366;12.912;2022-12-22T00:01:40;100527.78;;;5.72;100.00
57668;BME280;43499;52.366;12.912;2022-12-22T00:03:00;100521.97;;;5.75;100.00
57668;BME280;43499;52.366;12.912;2022-12-22T00:04:20;100496.22;;;5.60;100.00
57668;BME280;43499;52.366;12.912;2022-12-22T00:05:40;100500.81;;;5.63;100.00
57668;BME280;43499;52.366;12.912;2022-12-22T00:06:59;100511.06;;;5.70;100.00
57668;BME280;43499;52.366;12.912;2022-12-22T00:08:19;100525.47;;;5.75;100.00
57668;BME280;43499;52.366;12.912;2022-12-22T00:09:38;100517.53;;;5.74;100.00
57668;BME280;43499;52.366;12.912;2022-12-22T00:10:59;100515.69;;;5.72;100.00
57668;BME280;43499;52.366;12.912;2022-12-22T00:12:19;100518.44;;;5.74;100.00
57668;BME280;43499;52.366;12.912;2022-12-22T00:13:39;100523.94;;;5.77;100.00
57668;BME280;43499;52.366;12.912;2022-12-22T00:15:00;100506.16;;;5.73;100.00
57668;BME280;43499;52.366;12.912;2022-12-22T00:16:19;100516.44;;;5.80;100.00
57668;BME280;43499;52.366;12.912;2022-12-22T00:17:39;100508.59;;;5.80;100.00
57668;BME280;43499;52.366;12.912;2022-12-22T00:18:58;100491.00;;;5.69;100.00
57668;BME280;43499;52.366;12.912;2022-12-22T00:20:19;100483.75;;;5.75;100.00
57668;BME280;43499;52.366;12.912;2022-12-22T00:21:38;100484.59;;;5.93;100.00
57668;BME280;43499;52.366;12.912;2022-12-22T00:22:58;100497.19;;;5.97;100.00
57668;BME280;43499;52.366;12.912;2022-12-22T00:24:18;100491.97;;;5.97;100.00
57668;BME280;43499;52.366;12.912;2022-12-22T00:25:37;100496.25;;;5.97;100.00
57668;BME280;43499;52.366;12.912;2022-12-22T00:26:57;100488.28;;;5.95;100.00
57668;BME280;43499;52.366;12.912;2022-12-22T00:28:17;100498.25;;;5.99;100.00
57668;BME280;43499;52.366;12.912;2022-12-22T00:29:39;100495.63;;;5.99;100.00
57668;BME280;43499;52.366;12.912;2022-12-22T00:30:59;100467.00;;;5.82;100.00
57668;BME280;43499;52.366;12.912;2022-12-22T00:32:19;100488.41;;;5.97;100.00
57668;BME280;43499;52.366;12.912;2022-12-22T00:33:39;100466.69;;;5.79;100.00
57668;BME280;43499;52.366;12.912;2022-12-22T00:35:00;100480.03;;;5.82;100.00
57668;BME280;43499;52.366;12.912;2022-12-22T00:36:20;100449.41;;;5.70;100.00
57668;BME280;43499;52.366;12.912;2022-12-22T00:37:41;100413.13;;;5.54;100.00
57668;BME280;43499;52.366;12.912;2022-12-22T00:39:00;100488.88;;;5.93;100.00
57668;BME280;43499;52.366;12.912;2022-12-22T00:40:23;100483.06;;;5.95;100.00
57668;BME280;43499;52.366;12.912;2022-12-22T00:41:44;100487.06;;;5.92;100.00
57668;BME280;43499;52.366;12.912;2022-12-22T00:43:05;100466.56;;;5.77;100.00
57668;BME280;43499;52.366;12.912;2022-12-22T00:44:25;100463.97;;;5.77;100.00
57668;BME280;43499;52.366;12.912;2022-12-22T00:45:44;100461.03;;;5.74;100.00
57668;BME280;43499;52.366;12.912;2022-12-22T00:47:04;100484.47;;;5.92;100.00
57668;BME280;43499;52.366;12.912;2022-12-22T00:48:25;100474.16;;;5.93;100.00
57668;BME280;43499;52.366;12.912;2022-12-22T00:49:47;100483.31;;;5.98;100.00
57668;BME280;43499;52.366;12.912;2022-12-22T00:51:07;100480.44;;;5.95;100.00
57668;BME280;43499;52.366;12.912;2022-12-22T00:52:27;100471.69;;;5.95;100.00
57668;BME280;43499;52.366;12.912;2022-12-22T00:53:47;100460.69;;;5.89;100.00
57668;BME280;43499;52.366;12.912;2022-12-22T00:55:19;100475.38;;;5.97;100.00
57668;BME280;43499;52.366;12.912;2022-12-22T00:56:40;100475.06;;;5.94;100.00
57668;BME280;43499;52.366;12.912;2022-12-22T00:58:02;100478.63;;;6.03;100.00
57668;BME280;43499;52.366;12.912;2022-12-22T00:59:22;100455.13;;;5.94;100.00
57668;BME280;43499;52.366;12.912;2022-12-22T01:00:41;100469.22;;;6.05;100.00
57668;BME280;43499;52.366;12.912;2022-12-22T01:02:01;100473.66;;;6.06;100.00
57668;BME280;43499;52.366;12.912;2022-12-22T01:03:20;100466.47;;;6.04;100.00
57668;BME280;43499;52.366;12.912;2022-12-22T01:04:40;100458.34;;;6.00;100.00
57668;BME280;43499;52.366;12.912;2022-12-22T01:06:00;100470.16;;;6.06;100.00
57668;BME280;43499;52.366;12.912;2022-12-22T01:07:21;100458.03;;;5.97;100.00
57668;BME280;43499;52.366;12.912;2022-12-22T01:08:42;100456.81;;;5.94;100.00
57668;BME280;43499;52.366;12.912;2022-12-22T01:10:02;100438.31;;;5.82;100.00
57668;BME280;43499;52.366;12.912;2022-12-22T01:11:22;100445.16;;;5.90;100.00
57668;BME280;43499;52.366;12.912;2022-12-22T01:12:41;100461.72;;;5.99;100.00
57668;BME280;43499;52.366;12.912;2022-12-22T01:14:01;100462.44;;;5.98;100.00
57668;BME280;43499;52.366;12.912;2022-12-22T01:15:21;100461.41;;;5.96;100.00
57668;BME280;43499;52.366;12.912;2022-12-22T01:16:41;100441.22;;;5.85;100.00
57668;BME280;43499;52.366;12.912;2022-12-22T01:18:01;100458.22;;;5.90;100.00
57668;BME280;43499;52.366;12.912;2022-12-22T01:19:20;100458.84;;;5.87;100.00
57668;BME280;43499;52.366;12.912;2022-12-22T01:20:40;100467.75;;;5.90;100.00
57668;BME280;43499;52.366;12.912;2022-12-22T01:22:00;100451.50;;;5.83;100.00
57668;BME280;43499;52.366;12.912;2022-12-22T01:23:20;100431.59;;;5.75;100.00
57668;BME280;43499;52.366;12.912;2022-12-22T01:24:39;100448.09;;;5.84;100.00
57668;BME280;43499;52.366;12.912;2022-12-22T01:25:59;100428.25;;;5.67;100.00
57668;BME280;43499;52.366;12.912;2022-12-22T01:27:18;100418.59;;;5.66;100.00
57668;BME280;43499;52.366;12.912;2022-12-22T01:28:38;100454.25;;;5.85;100.00
57668;BME280;43499;52.366;12.912;2022-12-22T01:29:58;100421.50;;;5.69;100.00
57668;BME280;43499;52.366;12.912;2022-12-22T01:31:19;100447.03;;;5.82;100.00
57668;BME280;43499;52.366;12.912;2022-12-22T01:32:44;100445.06;;;5.80;100.00
57668;BME280;43499;52.366;12.912;2022-12-22T01:34:04;100442.13;;;5.85;100.00
57668;BME280;43499;52.366;12.912;2022-12-22T01:35:27;100442.00;;;5.84;100.00
57668;BME280;43499;52.366;12.912;2022-12-22T01:36:48;100430.97;;;5.78;100.00
57668;BME280;43499;52.366;12.912;2022-12-22T01:38:07;100442.91;;;5.84;100.00
57668;BME280;43499;52.366;12.912;2022-12-22T01:39:27;100427.28;;;5.76;100.00
57668;BME280;43499;52.366;12.912;2022-12-22T01:40:47;100439.22;;;5.82;100.00
57668;BME280;43499;52.366;12.912;2022-12-22T01:42:11;100437.09;;;5.78;100.00
57668;BME280;43499;52.366;12.912;2022-12-22T01:43:32;100425.47;;;5.75;100.00
57668;BME280;43499;52.366;12.912;2022-12-22T01:44:52;100419.03;;;5.71;100.00
57668;BME280;43499;52.366;12.912;2022-12-22T01:46:20;100443.53;;;5.82;100.00
57668;BME280;43499;52.366;12.912;2022-12-22T01:47:40;100426.50;;;5.77;100.00
57668;BME280;43499;52.366;12.912;2022-12-22T01:49:00;100417.66;;;5.75;100.00
57668;BME280;43499;52.366;12.912;2022-12-22T01:50:24;100415.81;;;5.74;100.00
57668;BME280;43499;52.366;12.912;2022-12-22T01:51:45;100414.75;;;5.71;100.00
57668;BME280;43499;52.366;12.912;2022-12-22T01:53:06;100418.66;;;5.85;100.00
57668;BME280;43499;52.366;12.912;2022-12-22T01:54:26;100402.78;;;5.74;100.00
57668;BME280;43499;52.366;12.912;2022-12-22T01:55:46;100419.13;;;5.81;100.00
57668;BME280;43499;52.366;12.912;2022-12-22T01:57:05;100384.84;;;5.68;100.00
57668;BME280;43499;52.366;12.912;2022-12-22T01:58:29;100407.91;;;5.82;100.00
57668;BME280;43499;52.366;12.912;2022-12-22T01:59:51;100392.59;;;5.77;100.00
57668;BME280;43499;52.366;12.912;2022-12-22T02:01:14;100390.34;;;5.71;100.00
57668;BME280;43499;52.366;12.912;2022-12-22T02:02:33;100382.41;;;5.61;100.00
57668;BME280;43499;52.366;12.912;2022-12-22T02:03:53;100390.84;;;5.67;100.00
57668;BME280;43499;52.366;12.912;2022-12-22T02:05:14;100366.66;;;5.50;100.00
57668;BME280;43499;52.366;12.912;2022-12-22T02:06:40;100378.72;;;5.59;100.00
57668;BME280;43499;52.366;12.912;2022-12-22T02:08:13;100397.13;;;5.69;100.00
57668;BME280;43499;52.366;12.912;2022-12-22T02:09:59;100370.66;;;5.55;100.00
57668;BME280;43499;52.366;12.912;2022-12-22T02:11:48;100384.84;;;5.68;100.00
57668;BME280;43499;52.366;12.912;2022-12-22T02:13:26;100380.13;;;5.55;100.00
57668;BME280;43499;52.366;12.912;2022-12-22T02:15:17;100382.72;;;5.64;100.00
57668;BME280;43499;52.366;12.912;2022-12-22T02:18:15;100335.00;;;5.37;100.00
57668;BME280;43499;52.366;12.912;2022-12-22T02:20:15;100375.09;;;5.56;100.00
57668;BME280;43499;52.366;12.912;2022-12-22T02:21:52;100340.97;;;5.36;100.00
57668;BME280;43499;52.366;12.912;2022-12-22T02:24:55;100343.09;;;5.40;100.00
57668;BME280;43499;52.366;12.912;2022-12-22T02:26:37;100346.91;;;5.44;100.00
57668;BME280;43499;52.366;12.912;2022-12-22T02:28:01;100352.72;;;5.50;100.00
57668;BME280;43499;52.366;12.912;2022-12-22T02:29:28;100350.47;;;5.44;100.00
57668;BME280;43499;52.366;12.912;2022-12-22T02:30:49;100339.28;;;5.36;100.00
57668;BME280;43499;52.366;12.912;2022-12-22T02:32:10;100316.34;;;5.23;100.00
57668;BME280;43499;52.366;12.912;2022-12-22T02:33:29;100355.50;;;5.43;100.00
57668;BME280;43499;52.366;12.912;2022-12-22T02:34:49;100302.63;;;5.16;100.00
57668;BME280;43499;52.366;12.912;2022-12-22T02:36:15;100351.22;;;5.43;100.00
57668;BME280;43499;52.366;12.912;2022-12-22T02:37:54;100335.63;;;5.34;100.00
57668;BME280;43499;52.366;12.912;2022-12-22T02:39:26;100333.66;;;5.32;100.00
57668;BME280;43499;52.366;12.912;2022-12-22T02:44:09;100354.72;;;5.52;100.00
57668;BME280;43499;52.366;12.912;2022-12-22T02:47:28;100340.94;;;5.45;100.00
57668;BME280;43499;52.366;12.912;2022-12-22T02:48:54;100335.44;;;5.41;100.00
57668;BME280;43499;52.366;12.912;2022-12-22T02:50:23;100328.88;;;5.36;100.00
57668;BME280;43499;52.366;12.912;2022-12-22T02:51:50;100342.78;;;5.46;100.00
57668;BME280;43499;52.366;12.912;2022-12-22T02:53:13;100342.78;;;5.46;100.00
57668;BME280;43499;52.366;12.912;2022-12-22T02:54:33;100345.69;;;5.49;100.00
57668;BME280;43499;52.366;12.912;2022-12-22T02:55:58;100330.22;;;5.41;100.00
57668;BME280;43499;52.366;12.912;2022-12-22T02:57:20;100341.09;;;5.46;100.00
57668;BME280;43499;52.366;12.912;2022-12-22T02:58:39;100345.03;;;5.51;100.00
57668;BME280;43499;52.366;12.912;2022-12-22T02:59:59;100341.38;;;5.49;100.00
57668;BME280;43499;52.366;12.912;2022-12-22T03:01:19;100343.38;;;5.52;100.00
57668;BME280;43499;52.366;12.912;2022-12-22T03:02:39;100346.25;;;5.55;100.00
57668;BME280;43499;52.366;12.912;2022-12-22T03:03:58;100313.72;;;5.32;100.00
57668;BME280;43499;52.366;12.912;2022-12-22T03:05:19;100322.56;;;5.43;100.00
57668;BME280;43499;52.366;12.912;2022-12-22T03:06:38;100341.97;;;5.55;100.00
57668;BME280;43499;52.366;12.912;2022-12-22T03:07:58;100325.94;;;5.42;100.00
57668;BME280;43499;52.366;12.912;2022-12-22T03:09:18;100314.88;;;5.45;100.00
57668;BME280;43499;52.366;12.912;2022-12-22T03:10:38;100335.69;;;5.53;100.00
57668;BME280;43499;52.366;12.912;2022-12-22T03:11:57;100331.69;;;5.57;100.00
57668;BME280;43499;52.366;12.912;2022-12-22T03:13:17;100330.78;;;5.56;100.00
57668;BME280;43499;52.366;12.912;2022-12-22T03:14:37;100331.38;;;5.54;100.00
57668;BME280;43499;52.366;12.912;2022-12-22T03:15:56;100333.84;;;5.52;100.00
57668;BME280;43499;52.366;12.912;2022-12-22T03:17:16;100331.88;;;5.50;100.00
57668;BME280;43499;52.366;12.912;2022-12-22T03:18:36;100301.88;;;5.36;100.00
57668;BME280;43499;52.366;12.912;2022-12-22T03:19:55;100329.75;;;5.46;100.00
57668;BME280;43499;52.366;12.912;2022-12-22T03:21:15;100319.22;;;5.35;100.00
57668;BME280;43499;52.366;12.912;2022-12-22T03:22:35;100308.81;;;5.27;100.00
57668;BME280;43499;52.366;12.912;2022-12-22T03:23:54;100325.97;;;5.33;100.00
57668;BME280;43499;52.366;12.912;2022-12-22T03:25:14;100250.91;;;4.92;100.00
57668;BME280;43499;52.366;12.912;2022-12-22T03:26:34;100309.25;;;5.31;100.00
57668;BME280;43499;52.366;12.912;2022-12-22T03:27:35;100295.97;;;5.28;100.00
57668;BME280;43499;52.366;12.912;2022-12-22T03:28:36;100307.25;;;5.37;100.00
57668;BME280;43499;52.366;12.912;2022-12-22T03:29:37;100313.38;;;5.38;100.00
57668;BME280;43499;52.366;12.912;2022-12-22T03:30:38;100296.09;;;5.30;100.00
57668;BME280;43499;52.366;12.912;2022-12-22T03:31:39;100275.78;;;5.17;100.00
57668;BME280;43499;52.366;12.912;2022-12-22T03:32:40;100284.31;;;5.24;100.00
57668;BME280;43499;52.366;12.912;2022-12-22T03:33:41;100297.94;;;5.31;100.00
57668;BME280;43499;52.366;12.912;2022-12-22T03:34:42;100294.91;;;5.26;100.00
57668;BME280;43499;52.366;12.912;2022-12-22T03:35:44;100300.41;;;5.29;100.00
57668;BME280;43499;52.366;12.912;2022-12-22T03:36:45;100300.25;;;5.28;100.00
57668;BME280;43499;52.366;12.912;2022-12-22T03:37:46;100296.44;;;5.24;100.00
57668;BME280;43499;52.366;12.912;2022-12-22T03:38:47;100267.81;;;5.15;100.00
57668;BME280;43499;52.366;12.912;2022-12-22T03:39:48;100264.78;;;5.02;100.00
57668;BME280;43499;52.366;12.912;2022-12-22T03:40:49;100285.28;;;5.16;100.00
57668;BME280;43499;52.366;12.912;2022-12-22T03:41:50;100275.66;;;5.06;100.00
57668;BME280;43499;52.366;12.912;2022-12-22T03:43:11;100283.34;;;5.05;100.00
57668;BME280;43499;52.366;12.912;2022-12-22T03:44:31;100272.94;;;4.96;100.00
57668;BME280;43499;52.366;12.912;2022-12-22T03:45:54;100284.44;;;4.98;100.00
57668;BME280;43499;52.366;12.912;2022-12-22T03:47:13;100280.31;;;4.91;100.00
57668;BME280;43499;52.366;12.912;2022-12-22T03:48:14;100274.53;;;4.85;100.00
57668;BME280;43499;52.366;12.912;2022-12-22T03:49:15;100243.38;;;4.59;100.00
57668;BME280;43499;52.366;12.912;2022-12-22T03:50:19;100270.44;;;4.70;100.00
57668;BME280;43499;52.366;12.912;2022-12-22T03:51:20;100281.47;;;4.76;100.00
57668;BME280;43499;52.366;12.912;2022-12-22T03:52:21;100253.63;;;4.57;100.00
57668;BME280;43499;52.366;12.912;2022-12-22T03:53:22;100231.16;;;4.49;100.00
57668;BME280;43499;52.366;12.912;2022-12-22T03:54:24;100272.16;;;4.60;100.00
57668;BME280;43499;52.366;12.912;2022-12-22T03:55:25;100241.13;;;4.44;100.00
57668;BME280;43499;52.366;12.912;2022-12-22T03:56:26;100266.19;;;4.61;100.00
57668;BME280;43499;52.366;12.912;2022-12-22T03:57:27;100224.00;;;4.38;100.00
57668;BME280;43499;52.366;12.912;2022-12-22T03:58:28;100254.84;;;4.61;100.00
57668;BME280;43499;52.366;12.912;2022-12-22T03:59:29;100244.16;;;4.49;100.00
57668;BME280;43499;52.366;12.912;2022-12-22T04:00:31;100190.38;;;4.13;100.00
57668;BME280;43499;52.366;12.912;2022-12-22T04:01:35;100251.22;;;4.50;100.00
57668;BME280;43499;52.366;12.912;2022-12-22T04:02:36;100254.06;;;4.62;100.00
57668;BME280;43499;52.366;12.912;2022-12-22T04:03:37;100234.50;;;4.57;100.00
57668;BME280;43499;52.366;12.912;2022-12-22T04:04:38;100220.75;;;4.49;100.00
57668;BME280;43499;52.366;12.912;2022-12-22T04:05:39;100202.09;;;4.44;100.00
57668;BME280;43499;52.366;12.912;2022-12-22T04:06:41;100202.66;;;4.51;100.00
57668;BME280;43499;52.366;12.912;2022-12-22T04:07:42;100245.59;;;4.82;100.00
57668;BME280;43499;52.366;12.912;2022-12-22T04:08:43;100233.97;;;4.78;100.00
57668;BME280;43499;52.366;12.912;2022-12-22T04:09:44;100239.59;;;4.83;100.00
57668;BME280;43499;52.366;12.912;2022-12-22T04:11:04;100241.25;;;4.91;100.00
57668;BME280;43499;52.366;12.912;2022-12-22T04:12:24;100238.31;;;4.97;100.00
57668;BME280;43499;52.366;12.912;2022-12-22T04:13:43;100240.34;;;4.91;100.00
57668;BME280;43499;52.366;12.912;2022-12-22T04:14:44;100215.31;;;4.74;100.00
57668;BME280;43499;52.366;12.912;2022-12-22T04:15:45;100221.31;;;4.64;100.00
57668;BME280;43499;52.366;12.912;2022-12-22T04:16:47;100239.16;;;4.78;100.00
57668;BME280;43499;52.366;12.912;2022-12-22T04:17:48;100223.59;;;4.61;100.00
57668;BME280;43499;52.366;12.912;2022-12-22T04:18:49;100237.78;;;4.73;100.00
57668;BME280;43499;52.366;12.912;2022-12-22T04:19:50;100189.50;;;4.49;100.00
57668;BME280;43499;52.366;12.912;2022-12-22T04:20:51;100195.16;;;4.54;100.00
57668;BME280;43499;52.366;12.912;2022-12-22T04:21:53;100239.91;;;4.86;100.00
57668;BME280;43499;52.366;12.912;2022-12-22T04:22:55;100238.19;;;4.96;100.00
57668;BME280;43499;52.366;12.912;2022-12-22T04:23:56;100226.81;;;4.95;100.00
57668;BME280;43499;52.366;12.912;2022-12-22T04:24:57;100227.88;;;5.06;100.00
57668;BME280;43499;52.366;12.912;2022-12-22T04:25:58;100231.38;;;5.06;100.00
57668;BME280;43499;52.366;12.912;2022-12-22T04:26:59;100207.13;;;4.88;100.00
57668;BME280;43499;52.366;12.912;2022-12-22T04:28:00;100234.13;;;5.08;100.00
57668;BME280;43499;52.366;12.912;2022-12-22T04:29:01;100213.19;;;4.98;100.00
57668;BME280;43499;52.366;12.912;2022-12-22T04:30:04;100198.09;;;4.85;100.00
57668;BME280;43499;52.366;12.912;2022-12-22T04:31:05;100189.50;;;4.86;100.00
57668;BME280;43499;52.366;12.912;2022-12-22T04:32:06;100202.00;;;4.99;100.00
57668;BME280;43499;52.366;12.912;2022-12-22T04:33:07;100186.56;;;4.91;100.00
57668;BME280;43499;52.366;12.912;2022-12-22T04:34:08;100222.00;;;5.08;100.00
57668;BME280;43499;52.366;12.912;2022-12-22T04:35:10;100222.00;;;5.08;100.00
57668;BME280;43499;52.366;12.912;2022-12-22T04:36:11;100228.72;;;5.15;100.00
57668;BME280;43499;52.366;12.912;2022-12-22T04:37:13;100186.44;;;4.90;100.00
57668;BME280;43499;52.366;12.912;2022-12-22T04:38:14;100233.28;;;5.18;100.00
57668;BME280;43499;52.366;12.912;2022-12-22T04:39:15;100225.13;;;5.23;100.00
57668;BME280;43499;52.366;12.912;2022-12-22T04:40:16;100233.91;;;5.24;100.00
57668;BME280;43499;52.366;12.912;2022-12-22T04:41:17;100206.34;;;5.17;100.00
57668;BME280;43499;52.366;12.912;2022-12-22T04:42:18;100224.19;;;5.32;100.00
57668;BME280;43499;52.366;12.912;2022-12-22T04:43:19;100222.06;;;5.28;100.00
57668;BME280;43499;52.366;12.912;2022-12-22T04:44:20;100197.13;;;5.21;100.00
57668;BME280;43499;52.366;12.912;2022-12-22T04:45:21;100230.41;;;5.43;100.00
57668;BME280;43499;52.366;12.912;2022-12-22T04:46:22;100212.31;;;5.44;100.00
57668;BME280;43499;52.366;12.912;2022-12-22T04:47:23;100191.84;;;5.30;100.00
57668;BME280;43499;52.366;12.912;2022-12-22T04:48:25;100221.19;;;5.46;100.00
57668;BME280;43499;52.366;12.912;2022-12-22T04:49:26;100174.72;;;5.23;100.00
57668;BME280;43499;52.366;12.912;2022-12-22T04:50:27;100212.31;;;5.44;100.00
57668;BME280;43499;52.366;12.912;2022-12-22T04:51:29;100213.50;;;5.48;100.00
57668;BME280;43499;52.366;12.912;2022-12-22T04:52:30;100176.09;;;5.28;100.00
57668;BME280;43499;52.366;12.912;2022-12-22T04:53:31;100156.06;;;5.18;100.00
57668;BME280;43499;52.366;12.912;2022-12-22T04:54:32;100206.88;;;5.51;100.00
57668;BME280;43499;52.366;12.912;2022-12-22T04:55:33;100165.31;;;5.34;100.00
57668;BME280;43499;52.366;12.912;2022-12-22T04:56:34;100190.94;;;5.48;100.00
57668;BME280;43499;52.366;12.912;2022-12-22T04:57:35;100203.03;;;5.56;100.00
57668;BME280;43499;52.366;12.912;2022-12-22T04:58:36;100164.25;;;5.32;100.00
57668;BME280;43499;52.366;12.912;2022-12-22T04:59:37;100206.81;;;5.60;100.00
57668;BME280;43499;52.366;12.912;2022-12-22T05:00:38;100172.16;;;5.42;100.00
57668;BME280;43499;52.366;12.912;2022-12-22T05:01:39;100186.97;;;5.52;100.00
57668;BME280;43499;52.366;12.912;2022-12-22T05:02:40;100195.47;;;5.60;100.00
57668;BME280;43499;52.366;12.912;2022-12-22T05:03:41;100141.44;;;5.29;100.00
57668;BME280;43499;52.366;12.912;2022-12-22T05:04:42;100193.56;;;5.67;100.00
57668;BME280;43499;52.366;12.912;2022-12-22T05:05:43;100172.56;;;5.47;100.00
57668;BME280;43499;52.366;12.912;2022-12-22T05:06:45;100174.75;;;5.61;100.00
57668;BME280;43499;52.366;12.912;2022-12-22T05:07:46;100187.44;;;5.67;100.00
57668;BME280;43499;52.366;12.912;2022-12-22T05:08:47;100183.78;;;5.65;100.00
57668;BME280;43499;52.366;12.912;2022-12-22T05:09:48;100138.28;;;5.42;100.00
57668;BME280;43499;52.366;12.912;2022-12-22T05:10:49;100149.66;;;5.53;100.00
57668;BME280;43499;52.366;12.912;2022-12-22T05:11:50;100176.66;;;5.72;100.00
57668;BME280;43499;52.366;12.912;2022-12-22T05:12:51;100125.47;;;5.35;100.00
57668;BME280;43499;52.366;12.912;2022-12-22T05:13:54;100147.22;;;5.54;100.00
57668;BME280;43499;52.366;12.912;2022-12-22T05:14:55;100119.31;;;5.34;100.00
57668;BME280;43499;52.366;12.912;2022-12-22T05:16:08;100173.13;;;5.72;100.00
57668;BME280;43499;52.366;12.912;2022-12-22T05:17:09;100153.91;;;5.61;100.00
57668;BME280;43499;52.366;12.912;2022-12-22T05:18:10;100181.47;;;5.68;100.00
57668;BME280;43499;52.366;12.912;2022-12-22T05:19:12;100176.38;;;5.69;100.00
57668;BME280;43499;52.366;12.912;2022-12-22T05:20:14;100179.88;;;5.70;100.00
57668;BME280;43499;52.366;12.912;2022-12-22T05:21:19;100175.72;;;5.72;100.00
57668;BME280;43499;52.366;12.912;2022-12-22T05:22:21;100173.63;;;5.68;100.00
57668;BME280;43499;52.366;12.912;2022-12-22T05:23:22;100167.50;;;5.67;100.00
57668;BME280;43499;52.366;12.912;2022-12-22T05:24:23;100146.09;;;5.61;100.00
57668;BME280;43499;52.366;12.912;2022-12-22T05:25:24;100124.75;;;5.46;100.00
57668;BME280;43499;52.366;12.912;2022-12-22T05:26:25;100117.34;;;5.51;100.00
57668;BME280;43499;52.366;12.912;2022-12-22T05:27:26;100147.69;;;5.69;100.00
57668;BME280;43499;52.366;12.912;2022-12-22T05:28:27;100127.56;;;5.58;100.00
57668;BME280;43499;52.366;12.912;2022-12-22T05:29:29;100091.94;;;5.29;100.00
57668;BME280;43499;52.366;12.912;2022-12-22T05:30:30;100152.63;;;5.66;100.00
57668;BME280;43499;52.366;12.912;2022-12-22T05:31:31;100098.75;;;5.37;100.00
57668;BME280;43499;52.366;12.912;2022-12-22T05:32:32;100150.31;;;5.69;100.00
57668;BME280;43499;52.366;12.912;2022-12-22T05:33:34;100149.53;;;5.70;100.00
57668;BME280;43499;52.366;12.912;2022-12-22T05:34:35;100143.38;;;5.70;100.00
57668;BME280;43499;52.366;12.912;2022-12-22T05:35:36;100148.47;;;5.68;100.00
57668;BME280;43499;52.366;12.912;2022-12-22T05:36:37;100141.41;;;5.67;100.00
57668;BME280;43499;52.366;12.912;2022-12-22T05:37:38;100133.47;;;5.66;100.00
57668;BME280;43499;52.366;12.912;2022-12-22T05:38:39;100114.22;;;5.55;100.00
57668;BME280;43499;52.366;12.912;2022-12-22T05:39:41;100098.69;;;5.46;100.00
57668;BME280;43499;52.366;12.912;2022-12-22T05:40:42;100137.25;;;5.69;100.00
57668;BME280;43499;52.366;12.912;2022-12-22T05:41:43;100134.94;;;5.72;100.00
57668;BME280;43499;52.366;12.912;2022-12-22T05:42:44;100134.78;;;5.71;100.00
57668;BME280;43499;52.366;12.912;2022-12-22T05:43:45;100129.97;;;5.76;100.00
57668;BME280;43499;52.366;12.912;2022-12-22T05:44:46;100106.47;;;5.65;100.00
57668;BME280;43499;52.366;12.912;2022-12-22T05:45:47;100104.31;;;5.51;100.00
57668;BME280;43499;52.366;12.912;2022-12-22T05:46:49;100120.97;;;5.72;100.00
57668;BME280;43499;52.366;12.912;2022-12-22T05:47:52;100094.91;;;5.53;100.00
57668;BME280;43499;52.366;12.912;2022-12-22T05:48:53;100130.63;;;5.73;100.00
57668;BME280;43499;52.366;12.912;2022-12-22T05:49:54;100110.28;;;5.69;100.00
57668;BME280;43499;52.366;12.912;2022-12-22T05:50:57;100140.03;;;5.81;100.00
57668;BME280;43499;52.366;12.912;2022-12-22T05:51:58;100128.72;;;5.81;100.00
57668;BME280;43499;52.366;12.912;2022-12-22T05:52:59;100093.00;;;5.61;100.00
57668;BME280;43499;52.366;12.912;2022-12-22T05:54:00;100127.28;;;5.84;100.00
57668;BME280;43499;52.366;12.912;2022-12-22T05:55:01;100127.44;;;5.86;100.00
57668;BME280;43499;52.366;12.912;2022-12-22T05:56:02;100118.69;;;5.85;100.00
57668;BME280;43499;52.366;12.912;2022-12-22T05:57:03;100107.44;;;5.76;100.00
57668;BME280;43499;52.366;12.912;2022-12-22T05:58:04;100078.31;;;5.61;100.00
57668;BME280;43499;52.366;12.912;2022-12-22T05:59:05;100106.31;;;5.83;100.00
57668;BME280;43499;52.366;12.912;2022-12-22T06:00:10;100097.91;;;5.77;100.00
57668;BME280;43499;52.366;12.912;2022-12-22T06:01:15;100112.28;;;5.82;100.00
57668;BME280;43499;52.366;12.912;2022-12-22T06:02:16;100067.72;;;5.60;100.00
57668;BME280;43499;52.366;12.912;2022-12-22T06:03:17;100050.97;;;5.47;100.00
57668;BME280;43499;52.366;12.912;2022-12-22T06:04:18;100078.56;;;5.64;100.00
57668;BME280;43499;52.366;12.912;2022-12-22T06:05:19;100068.78;;;5.62;100.00
57668;BME280;43499;52.366;12.912;2022-12-22T06:06:20;100082.59;;;5.61;100.00
57668;BME280;43499;52.366;12.912;2022-12-22T06:07:21;100103.03;;;5.85;100.00
57668;BME280;43499;52.366;12.912;2022-12-22T06:08:23;100107.50;;;5.86;100.00
57668;BME280;43499;52.366;12.912;2022-12-22T06:09:24;100101.50;;;5.87;100.00
57668;BME280;43499;52.366;12.912;2022-12-22T06:10:25;100107.50;;;5.86;100.00
57668;BME280;43499;52.366;12.912;2022-12-22T06:11:26;100102.41;;;5.88;100.00
57668;BME280;43499;52.366;12.912;2022-12-22T06:12:27;100099.38;;;5.83;100.00
57668;BME280;43499;52.366;12.912;2022-12-22T06:13:28;100103.44;;;5.90;100.00
57668;BME280;43499;52.366;12.912;2022-12-22T06:14:30;100107.78;;;5.90;100.00
57668;BME280;43499;52.366;12.912;2022-12-22T06:15:31;100101.63;;;5.89;100.00
57668;BME280;43499;52.366;12.912;2022-12-22T06:16:32;100107.13;;;5.92;100.00
57668;BME280;43499;52.366;12.912;2022-12-22T06:17:34;100083.72;;;5.83;100.00